createdAt,value
2019-02-20T00:00:20.174Z,5.41
2019-02-20T00:01:19.874Z,5.47
2019-02-20T00:02:20.134Z,5.47
2019-02-20T00:03:20.104Z,5.46
2019-02-20T00:04:20.376Z,5.48
2019-02-20T00:05:20.391Z,5.53
2019-02-20T00:06:20.345Z,5.56
2019-02-20T00:07:20.336Z,5.54
2019-02-20T00:08:20.064Z,5.57
2019-02-20T00:09:20.062Z,5.53
2019-02-20T00:10:20.323Z,5.56
2019-02-20T00:11:20.301Z,5.62
2019-02-20T00:12:20.273Z,5.59
2019-02-20T00:13:20.035Z,5.68
2019-02-20T00:14:20.027Z,5.64
2019-02-20T00:15:20.007Z,5.66
2019-02-20T00:16:19.994Z,5.66
2019-02-20T00:17:19.990Z,5.68
2019-02-20T00:18:20.238Z,5.68
2019-02-20T00:19:20.377Z,5.68
2019-02-20T00:20:19.995Z,5.73
2019-02-20T00:21:20.199Z,5.59
2019-02-20T00:22:20.196Z,5.64
2019-02-20T00:23:20.191Z,5.64
2019-02-20T00:24:20.189Z,5.61
2019-02-20T00:25:20.190Z,5.56
2019-02-20T00:26:20.162Z,5.57
2019-02-20T00:27:20.171Z,5.53
2019-02-20T00:28:20.187Z,5.5
2019-02-20T00:29:20.136Z,5.51
2019-02-20T00:30:20.236Z,5.36
2019-02-20T00:31:20.129Z,5.33
2019-02-20T00:32:20.126Z,5.3
2019-02-20T00:33:19.840Z,5.21
2019-02-20T00:34:19.838Z,5.32
2019-02-20T00:35:20.087Z,5.29
2019-02-20T00:36:19.829Z,5.29
2019-02-20T00:37:20.066Z,5.14
2019-02-20T00:38:20.078Z,5.14
2019-02-20T00:39:20.046Z,5.15
2019-02-20T00:40:19.652Z,5.05
2019-02-20T00:41:20.046Z,5.05
2019-02-20T00:42:20.048Z,4.99
2019-02-20T00:43:19.528Z,5.02
2019-02-20T00:44:20.007Z,4.93
2019-02-20T00:45:20.071Z,4.94
2019-02-20T00:46:19.737Z,4.89
2019-02-20T00:47:19.736Z,4.92
2019-02-20T00:48:19.995Z,4.89
2019-02-20T00:49:19.720Z,4.89
2019-02-20T00:50:20.023Z,4.86
2019-02-20T00:51:19.938Z,4.82
2019-02-20T00:52:19.941Z,4.77
2019-02-20T00:53:19.937Z,4.82
2019-02-20T00:54:19.926Z,4.7
2019-02-20T00:55:19.942Z,4.75
2019-02-20T00:56:19.640Z,4.74
2019-02-20T00:57:19.635Z,4.62
2019-02-20T00:58:19.638Z,4.63
2019-02-20T00:59:21.760Z,4.5
2019-02-20T01:00:19.682Z,4.58
2019-02-20T01:01:19.882Z,4.5
2019-02-20T01:02:19.584Z,4.52
2019-02-20T01:03:19.841Z,4.42
2019-02-20T01:04:19.889Z,4.32
2019-02-20T01:05:19.657Z,4.42
2019-02-20T01:06:19.797Z,4.37
2019-02-20T01:07:19.795Z,4.34
2019-02-20T01:08:19.794Z,4.23
2019-02-20T01:09:19.772Z,4.26
2019-02-20T01:10:19.856Z,4.2
2019-02-20T01:11:19.540Z,4.24
2019-02-20T01:12:19.749Z,4.26
2019-02-20T01:13:19.234Z,4.19
2019-02-20T01:14:19.733Z,4.16
2019-02-20T01:15:19.819Z,4.12
2019-02-20T01:16:19.709Z,4.13
2019-02-20T01:17:19.700Z,4.16
2019-02-20T01:18:19.713Z,4.08
2019-02-20T01:19:19.584Z,4.1
2019-02-20T01:20:19.761Z,4.13
2019-02-20T01:21:19.666Z,3.99
2019-02-20T01:22:19.666Z,3.99
2019-02-20T01:23:19.396Z,4.01
2019-02-20T01:24:19.393Z,3.86
2019-02-20T01:25:19.222Z,3.83
2019-02-20T01:26:19.660Z,3.94
2019-02-20T01:27:19.627Z,3.91
2019-02-20T01:28:19.605Z,3.92
2019-02-20T01:29:19.333Z,4.05
2019-02-20T01:30:19.085Z,4.04
2019-02-20T01:31:19.587Z,4.01
2019-02-20T01:32:19.330Z,4.04
2019-02-20T01:33:21.139Z,4.01
2019-02-20T01:34:19.283Z,3.96
2019-02-20T01:35:19.588Z,3.86
2019-02-20T01:36:19.524Z,3.84
2019-02-20T01:37:19.253Z,3.88
2019-02-20T01:38:19.256Z,3.86
2019-02-20T01:39:19.477Z,3.84
2019-02-20T01:40:19.275Z,3.8
2019-02-20T01:41:19.223Z,3.77
2019-02-20T01:42:19.208Z,3.74
2019-02-20T01:43:19.468Z,3.81
2019-02-20T01:44:19.193Z,3.7
2019-02-20T01:45:19.276Z,3.66
2019-02-20T01:46:19.416Z,3.78
2019-02-20T01:47:19.152Z,3.78
2019-02-20T01:48:19.398Z,3.7
2019-02-20T01:49:19.154Z,3.77
2019-02-20T01:50:19.261Z,3.78
2019-02-20T01:51:19.394Z,3.7
2019-02-20T01:52:18.864Z,3.73
2019-02-20T01:53:19.105Z,3.76
2019-02-20T01:54:19.102Z,3.81
2019-02-20T01:55:19.385Z,3.77
2019-02-20T01:56:19.068Z,3.78
2019-02-20T01:57:19.320Z,3.68
2019-02-20T01:58:19.348Z,3.66
2019-02-20T01:59:18.800Z,3.7
2019-02-20T02:00:18.806Z,3.65
2019-02-20T02:01:19.021Z,3.68
2019-02-20T02:02:19.027Z,3.6
2019-02-20T02:03:19.255Z,3.59
2019-02-20T02:04:18.743Z,3.56
2019-02-20T02:05:20.268Z,3.58
2019-02-20T02:06:19.223Z,3.5
2019-02-20T02:07:18.721Z,3.47
2019-02-20T02:08:18.946Z,3.47
2019-02-20T02:09:18.935Z,3.58
2019-02-20T02:10:19.241Z,3.53
2019-02-20T02:11:18.665Z,3.55
2019-02-20T02:12:19.159Z,3.47
2019-02-20T02:13:18.913Z,3.44
2019-02-20T02:14:19.142Z,3.45
2019-02-20T02:15:25.464Z,3.36
2019-02-20T02:16:18.897Z,3.45
2019-02-20T02:17:18.858Z,3.47
2019-02-20T02:18:18.610Z,3.45
2019-02-20T02:19:19.087Z,3.45
2019-02-20T02:20:19.163Z,3.42
2019-02-20T02:21:19.114Z,3.47
2019-02-20T02:22:18.890Z,3.47
2019-02-20T02:23:24.287Z,3.56
2019-02-20T02:24:19.033Z,3.5
2019-02-20T02:25:19.030Z,3.55
2019-02-20T02:26:19.017Z,3.5
2019-02-20T02:27:19.013Z,3.5
2019-02-20T02:28:18.754Z,3.5
2019-02-20T02:29:18.748Z,3.45
2019-02-20T02:30:18.649Z,3.4
2019-02-20T02:31:18.722Z,3.45
2019-02-20T02:32:18.476Z,3.4
2019-02-20T02:33:18.943Z,3.47
2019-02-20T02:34:18.701Z,3.34
2019-02-20T02:35:18.722Z,3.25
2019-02-20T02:36:18.925Z,3.34
2019-02-20T02:37:18.402Z,3.25
2019-02-20T02:38:18.888Z,3.29
2019-02-20T02:39:18.882Z,3.36
2019-02-20T02:40:18.680Z,3.31
2019-02-20T02:41:18.612Z,3.34
2019-02-20T02:42:18.624Z,3.31
2019-02-20T02:43:18.875Z,3.25
2019-02-20T02:44:18.818Z,3.32
2019-02-20T02:45:18.698Z,3.29
2019-02-20T02:46:18.552Z,3.36
2019-02-20T02:47:18.369Z,3.34
2019-02-20T02:48:18.377Z,3.28
2019-02-20T02:49:18.818Z,3.37
2019-02-20T02:50:18.362Z,3.42
2019-02-20T02:51:18.846Z,3.34
2019-02-20T02:52:18.789Z,3.44
2019-02-20T02:53:18.746Z,3.4
2019-02-20T02:54:18.777Z,3.37
2019-02-20T02:55:18.504Z,3.45
2019-02-20T02:56:18.720Z,3.32
2019-02-20T02:57:18.692Z,3.34
2019-02-20T02:58:18.677Z,3.51
2019-02-20T02:59:18.471Z,3.34
2019-02-20T03:00:18.798Z,3.37
2019-02-20T03:01:18.451Z,3.44
2019-02-20T03:02:18.670Z,3.36
2019-02-20T03:03:18.643Z,3.45
2019-02-20T03:04:18.656Z,3.36
2019-02-20T03:05:18.433Z,3.37
2019-02-20T03:06:18.617Z,3.28
2019-02-20T03:07:18.583Z,3.25
2019-02-20T03:08:18.613Z,3.22
2019-02-20T03:09:18.317Z,3.19
2019-02-20T03:10:18.584Z,3.16
2019-02-20T03:11:18.290Z,3.11
2019-02-20T03:12:18.293Z,3.13
2019-02-20T03:13:18.058Z,3.1
2019-02-20T03:14:18.259Z,3.14
2019-02-20T03:15:18.278Z,3.18
2019-02-20T03:16:18.258Z,3.11
2019-02-20T03:17:17.986Z,3.11
2019-02-20T03:18:18.221Z,3.1
2019-02-20T03:19:18.225Z,3.07
2019-02-20T03:20:18.803Z,3.1
2019-02-20T03:21:18.540Z,3.01
2019-02-20T03:22:18.174Z,3
2019-02-20T03:23:18.436Z,3
2019-02-20T03:24:18.164Z,3
2019-02-20T03:25:18.173Z,2.89
2019-02-20T03:26:18.151Z,2.86
2019-02-20T03:27:18.126Z,2.86
2019-02-20T03:28:18.107Z,3.03
2019-02-20T03:29:18.363Z,3.01
2019-02-20T03:30:18.387Z,2.98
2019-02-20T03:31:18.363Z,2.92
2019-02-20T03:32:18.418Z,2.86
2019-02-20T03:33:18.352Z,2.97
2019-02-20T03:34:18.090Z,2.92
2019-02-20T03:35:18.067Z,2.85
2019-02-20T03:36:17.788Z,2.9
2019-02-20T03:37:18.258Z,2.92
2019-02-20T03:38:18.030Z,2.98
2019-02-20T03:39:18.017Z,3
2019-02-20T03:40:18.356Z,3
2019-02-20T03:41:17.979Z,3.01
2019-02-20T03:42:18.220Z,3
2019-02-20T03:43:17.956Z,3.1
2019-02-20T03:44:18.204Z,3
2019-02-20T03:45:18.284Z,3.04
2019-02-20T03:46:18.196Z,3.03
2019-02-20T03:47:20.154Z,3.03
2019-02-20T03:48:18.246Z,3
2019-02-20T03:49:17.895Z,3
2019-02-20T03:50:17.940Z,3.04
2019-02-20T03:51:17.882Z,3.08
2019-02-20T03:52:17.865Z,3.14
2019-02-20T03:53:17.621Z,3.11
2019-02-20T03:54:18.081Z,3.21
2019-02-20T03:55:17.738Z,3.16
2019-02-20T03:56:17.876Z,3.18
2019-02-20T03:57:18.057Z,3.14
2019-02-20T03:58:17.559Z,3.04
2019-02-20T03:59:17.541Z,3.11
2019-02-20T04:00:18.104Z,3.07
2019-02-20T04:01:18.021Z,3.07
2019-02-20T04:02:17.767Z,3.14
2019-02-20T04:03:17.986Z,3.03
2019-02-20T04:04:17.533Z,3.08
2019-02-20T04:05:17.759Z,3.08
2019-02-20T04:06:17.988Z,3
2019-02-20T04:07:17.478Z,3.04
2019-02-20T04:08:17.953Z,3.01
2019-02-20T04:09:18.042Z,2.95
2019-02-20T04:10:17.849Z,2.95
2019-02-20T04:11:17.930Z,3.11
2019-02-20T04:12:17.659Z,3.04
2019-02-20T04:13:17.893Z,3
2019-02-20T04:14:17.637Z,2.97
2019-02-20T04:15:17.711Z,2.93
2019-02-20T04:16:17.877Z,2.83
2019-02-20T04:17:17.606Z,2.92
2019-02-20T04:18:17.849Z,2.86
2019-02-20T04:19:17.601Z,2.85
2019-02-20T04:20:17.630Z,2.92
2019-02-20T04:21:17.842Z,2.87
2019-02-20T04:22:17.547Z,2.9
2019-02-20T04:23:17.567Z,2.9
2019-02-20T04:24:17.777Z,2.92
2019-02-20T04:25:17.339Z,2.9
2019-02-20T04:26:17.768Z,2.9
2019-02-20T04:27:17.234Z,2.87
2019-02-20T04:28:17.495Z,2.89
2019-02-20T04:29:17.717Z,2.92
2019-02-20T04:30:17.765Z,2.95
2019-02-20T04:31:17.457Z,2.9
2019-02-20T04:32:17.699Z,3
2019-02-20T04:33:17.677Z,3.01
2019-02-20T04:34:17.409Z,2.98
2019-02-20T04:35:17.452Z,3.11
2019-02-20T04:36:17.398Z,3.1
2019-02-20T04:37:17.378Z,3.04
2019-02-20T04:38:17.626Z,3.08
2019-02-20T04:39:17.381Z,3.1
2019-02-20T04:40:17.604Z,3.07
2019-02-20T04:41:17.686Z,3.14
2019-02-20T04:42:17.348Z,3.21
2019-02-20T04:43:17.067Z,3.11
2019-02-20T04:44:17.558Z,3.13
2019-02-20T04:45:17.639Z,3.05
2019-02-20T04:46:17.277Z,3.13
2019-02-20T04:47:17.029Z,3.07
2019-02-20T04:48:17.342Z,3.05
2019-02-20T04:49:17.534Z,3.11
2019-02-20T04:50:17.305Z,3.25
2019-02-20T04:51:17.494Z,3.21
2019-02-20T04:52:17.214Z,3.25
2019-02-20T04:53:17.206Z,3.26
2019-02-20T04:54:18.455Z,3.25
2019-02-20T04:55:16.955Z,3.25
2019-02-20T04:56:17.427Z,3.28
2019-02-20T04:57:17.419Z,3.32
2019-02-20T04:58:17.154Z,3.32
2019-02-20T04:59:17.391Z,3.37
2019-02-20T05:00:17.537Z,3.37
2019-02-20T05:01:17.372Z,3.36
2019-02-20T05:02:17.427Z,3.36
2019-02-20T05:03:17.377Z,3.44
2019-02-20T05:04:16.855Z,3.41
2019-02-20T05:05:17.410Z,3.47
2019-02-20T05:06:17.082Z,3.37
2019-02-20T05:07:17.337Z,3.5
2019-02-20T05:08:17.314Z,3.53
2019-02-20T05:09:17.053Z,3.51
2019-02-20T05:10:17.102Z,3.47
2019-02-20T05:11:16.805Z,3.56
2019-02-20T05:12:17.267Z,3.47
2019-02-20T05:13:17.044Z,3.6
2019-02-20T05:14:17.247Z,3.5
2019-02-20T05:15:17.305Z,3.62
2019-02-20T05:16:17.229Z,3.65
2019-02-20T05:17:17.247Z,3.65
2019-02-20T05:18:17.233Z,3.63
2019-02-20T05:19:17.191Z,3.69
2019-02-20T05:20:16.987Z,3.65
2019-02-20T05:21:17.327Z,3.68
2019-02-20T05:22:17.207Z,3.68
2019-02-20T05:23:17.168Z,3.73
2019-02-20T05:24:27.033Z,3.77
2019-02-20T05:25:16.894Z,3.78
2019-02-20T05:26:17.254Z,3.83
2019-02-20T05:27:17.124Z,3.81
2019-02-20T05:28:16.871Z,3.87
2019-02-20T05:29:16.855Z,3.86
2019-02-20T05:30:17.114Z,3.98
2019-02-20T05:31:18.955Z,4.04
2019-02-20T05:32:16.819Z,4.08
2019-02-20T05:33:16.795Z,4.17
2019-02-20T05:34:17.058Z,4.14
2019-02-20T05:35:16.780Z,4.31
2019-02-20T05:36:16.767Z,4.23
2019-02-20T05:37:16.527Z,4.31
2019-02-20T05:38:16.787Z,4.26
2019-02-20T05:39:16.799Z,4.35
2019-02-20T05:40:16.745Z,4.37
2019-02-20T05:41:17.002Z,4.38
2019-02-20T05:42:16.744Z,4.37
2019-02-20T05:43:16.729Z,4.35
2019-02-20T05:44:16.949Z,4.32
2019-02-20T05:45:16.701Z,4.38
2019-02-20T05:46:16.680Z,4.48
2019-02-20T05:47:16.921Z,4.5
2019-02-20T05:48:16.419Z,4.42
2019-02-20T05:49:16.995Z,4.5
2019-02-20T05:50:17.011Z,4.48
2019-02-20T05:51:16.898Z,4.49
2019-02-20T05:52:16.895Z,4.52
2019-02-20T05:53:16.864Z,4.55
2019-02-20T05:54:16.854Z,4.66
2019-02-20T05:55:16.438Z,4.6
2019-02-20T05:56:16.820Z,4.59
2019-02-20T05:57:16.566Z,4.71
2019-02-20T05:58:16.583Z,4.8
2019-02-20T05:59:16.602Z,4.67
2019-02-20T06:00:16.612Z,4.77
2019-02-20T06:01:16.796Z,4.82
2019-02-20T06:02:16.389Z,4.75
2019-02-20T06:03:16.543Z,4.84
2019-02-20T06:04:16.742Z,4.78
2019-02-20T06:05:16.790Z,4.78
2019-02-20T06:06:16.733Z,4.75
2019-02-20T06:07:16.733Z,4.82
2019-02-20T06:08:16.467Z,4.78
2019-02-20T06:09:16.707Z,4.77
2019-02-20T06:10:16.695Z,4.77
2019-02-20T06:11:19.483Z,4.7
2019-02-20T06:12:16.201Z,4.73
2019-02-20T06:13:16.666Z,4.66
2019-02-20T06:14:16.409Z,4.75
2019-02-20T06:15:16.236Z,4.66
2019-02-20T06:16:16.647Z,4.59
2019-02-20T06:17:16.623Z,4.6
2019-02-20T06:18:16.394Z,4.62
2019-02-20T06:19:16.604Z,4.62
2019-02-20T06:20:16.443Z,4.66
2019-02-20T06:21:18.806Z,4.49
2019-02-20T06:22:16.351Z,4.55
2019-02-20T06:23:16.586Z,4.55
2019-02-20T06:24:16.329Z,4.53
2019-02-20T06:25:16.693Z,4.58
2019-02-20T06:26:16.324Z,4.44
2019-02-20T06:27:16.555Z,4.41
2019-02-20T06:28:16.520Z,4.4
2019-02-20T06:29:16.520Z,4.34
2019-02-20T06:30:16.662Z,4.37
2019-02-20T06:31:16.498Z,4.35
2019-02-20T06:32:16.231Z,4.35
2019-02-20T06:33:16.490Z,4.31
2019-02-20T06:34:16.250Z,4.4
2019-02-20T06:35:16.277Z,4.34
2019-02-20T06:36:16.191Z,4.4
2019-02-20T06:37:16.442Z,4.38
2019-02-20T06:38:16.693Z,4.38
2019-02-20T06:39:16.417Z,4.38
2019-02-20T06:40:16.006Z,4.38
2019-02-20T06:41:16.400Z,4.44
2019-02-20T06:42:16.436Z,4.4
2019-02-20T06:43:16.133Z,4.44
2019-02-20T06:44:16.115Z,4.48
2019-02-20T06:45:16.363Z,4.49
2019-02-20T06:46:16.349Z,4.49
2019-02-20T06:47:16.340Z,4.49
2019-02-20T06:48:16.315Z,4.53
2019-02-20T06:49:16.335Z,4.52
2019-02-20T06:50:16.126Z,4.49
2019-02-20T06:51:16.079Z,4.5
2019-02-20T06:52:16.276Z,4.56
2019-02-20T06:53:16.298Z,4.55
2019-02-20T06:54:16.271Z,4.6
2019-02-20T06:55:16.016Z,4.49
2019-02-20T06:56:16.238Z,4.5
2019-02-20T06:57:16.272Z,4.48
2019-02-20T06:58:16.014Z,4.49
2019-02-20T06:59:16.421Z,4.55
2019-02-20T07:00:16.211Z,4.53
2019-02-20T07:01:16.183Z,4.55
2019-02-20T07:02:16.188Z,4.49
2019-02-20T07:03:16.194Z,4.53
2019-02-20T07:04:16.165Z,4.5
2019-02-20T07:05:15.991Z,4.55
2019-02-20T07:06:16.144Z,4.52
2019-02-20T07:07:16.128Z,4.49
2019-02-20T07:08:16.144Z,4.58
2019-02-20T07:09:17.439Z,4.55
2019-02-20T07:10:15.854Z,4.63
2019-02-20T07:11:16.092Z,4.66
2019-02-20T07:12:16.098Z,4.6
2019-02-20T07:13:16.070Z,4.59
2019-02-20T07:14:15.812Z,4.74
2019-02-20T07:15:16.147Z,4.67
2019-02-20T07:16:16.040Z,4.68
2019-02-20T07:17:16.035Z,4.77
2019-02-20T07:18:16.029Z,4.8
2019-02-20T07:19:16.034Z,4.86
2019-02-20T07:20:16.094Z,4.82
2019-02-20T07:21:15.752Z,4.92
2019-02-20T07:22:15.994Z,5
2019-02-20T07:23:15.984Z,4.86
2019-02-20T07:24:15.743Z,4.92
2019-02-20T07:25:15.789Z,4.96
2019-02-20T07:26:15.720Z,5
2019-02-20T07:27:15.715Z,5.02
2019-02-20T07:28:15.441Z,5.04
2019-02-20T07:29:15.929Z,5.11
2019-02-20T07:30:15.789Z,5.1
2019-02-20T07:31:15.925Z,5.12
2019-02-20T07:32:15.906Z,5.2
2019-02-20T07:33:15.644Z,5.2
2019-02-20T07:34:15.880Z,5.21
2019-02-20T07:35:15.872Z,5.2
2019-02-20T07:36:15.861Z,5.28
2019-02-20T07:37:15.855Z,5.28
2019-02-20T07:38:15.840Z,5.28
2019-02-20T07:39:15.851Z,5.36
2019-02-20T07:40:15.861Z,5.44
2019-02-20T07:41:15.569Z,5.41
2019-02-20T07:42:15.569Z,5.36
2019-02-20T07:43:15.815Z,5.44
2019-02-20T07:44:15.545Z,5.5
2019-02-20T07:45:15.888Z,5.48
2019-02-20T07:46:15.779Z,5.59
2019-02-20T07:47:15.575Z,5.57
2019-02-20T07:48:15.802Z,5.59
2019-02-20T07:49:15.499Z,5.72
2019-02-20T07:50:15.783Z,5.69
2019-02-20T07:51:17.322Z,5.73
2019-02-20T07:52:15.478Z,5.8
2019-02-20T07:53:15.739Z,5.83
2019-02-20T07:54:15.480Z,5.8
2019-02-20T07:55:18.519Z,5.8
2019-02-20T07:56:15.697Z,5.8
2019-02-20T07:57:15.694Z,5.87
2019-02-20T07:58:15.435Z,5.97
2019-02-20T07:59:15.442Z,5.89
2019-02-20T08:00:15.515Z,5.98
2019-02-20T08:01:15.702Z,5.99
2019-02-20T08:02:15.640Z,5.99
2019-02-20T08:03:15.143Z,6.14
2019-02-20T08:04:15.637Z,6.14
2019-02-20T08:05:15.443Z,6.28
2019-02-20T08:06:15.378Z,6.24
2019-02-20T08:07:15.449Z,6.41
2019-02-20T08:08:15.371Z,6.51
2019-02-20T08:09:15.355Z,6.49
2019-02-20T08:10:15.631Z,6.54
2019-02-20T08:11:15.367Z,6.51
2019-02-20T08:12:15.623Z,6.67
2019-02-20T08:13:15.562Z,6.69
2019-02-20T08:14:15.317Z,6.66
2019-02-20T08:15:15.573Z,6.7
2019-02-20T08:16:15.353Z,6.63
2019-02-20T08:17:15.309Z,6.63
2019-02-20T08:18:15.269Z,6.74
2019-02-20T08:19:15.274Z,6.63
2019-02-20T08:20:15.060Z,6.64
2019-02-20T08:21:15.505Z,6.7
2019-02-20T08:22:16.319Z,6.66
2019-02-20T08:23:15.003Z,6.7
2019-02-20T08:24:15.505Z,6.78
2019-02-20T08:25:24.852Z,7.15
2019-02-20T08:26:14.979Z,7.47
2019-02-20T08:27:15.455Z,7.91
2019-02-20T08:28:15.206Z,8.26
2019-02-20T08:29:15.202Z,8.73
2019-02-20T08:30:15.270Z,9.29
2019-02-20T08:31:14.945Z,9.84
2019-02-20T08:32:15.194Z,10.13
2019-02-20T08:33:15.215Z,10.3
2019-02-20T08:34:15.433Z,10.23
2019-02-20T08:35:15.243Z,10.23
2019-02-20T08:36:15.158Z,10.28
2019-02-20T08:37:15.975Z,10.48
2019-02-20T08:38:15.154Z,10.68
2019-02-20T08:39:15.443Z,10.96
2019-02-20T08:40:15.162Z,11.14
2019-02-20T08:41:15.384Z,10.93
2019-02-20T08:42:14.875Z,10.71
2019-02-20T08:43:15.149Z,10.33
2019-02-20T08:44:15.404Z,9.98
2019-02-20T08:45:15.155Z,9.56
2019-02-20T08:46:15.390Z,9.28
2019-02-20T08:47:15.379Z,9
2019-02-20T08:48:15.385Z,8.74
2019-02-20T08:49:15.360Z,8.56
2019-02-20T08:50:16.752Z,8.31
2019-02-20T08:51:15.356Z,8.27
2019-02-20T08:52:15.106Z,8.08
2019-02-20T08:53:15.395Z,7.9
2019-02-20T08:54:15.090Z,7.87
2019-02-20T08:55:15.181Z,7.85
2019-02-20T08:56:15.350Z,7.82
2019-02-20T08:57:15.357Z,7.67
2019-02-20T08:58:15.350Z,7.73
2019-02-20T08:59:15.093Z,7.72
2019-02-20T09:00:15.415Z,7.57
2019-02-20T09:01:15.066Z,7.56
2019-02-20T09:02:15.063Z,7.58
2019-02-20T09:03:15.060Z,7.56
2019-02-20T09:04:15.316Z,7.69
2019-02-20T09:05:15.124Z,7.72
2019-02-20T09:06:14.792Z,7.7
2019-02-20T09:07:15.248Z,7.79
2019-02-20T09:08:15.258Z,7.73
2019-02-20T09:09:14.760Z,7.72
2019-02-20T09:10:17.161Z,7.72
2019-02-20T09:11:15.281Z,7.72
2019-02-20T09:12:14.756Z,7.57
2019-02-20T09:13:14.994Z,7.63
2019-02-20T09:14:15.233Z,7.6
2019-02-20T09:15:15.249Z,7.6
2019-02-20T09:16:15.004Z,7.6
2019-02-20T09:17:14.971Z,7.67
2019-02-20T09:18:15.208Z,7.6
2019-02-20T09:19:14.727Z,7.73
2019-02-20T09:20:15.200Z,7.69
2019-02-20T09:21:14.951Z,7.79
2019-02-20T09:22:15.188Z,7.82
2019-02-20T09:23:15.213Z,7.97
2019-02-20T09:24:14.927Z,7.94
2019-02-20T09:25:23.993Z,7.91
2019-02-20T09:26:15.165Z,7.98
2019-02-20T09:27:14.663Z,8.03
2019-02-20T09:28:15.171Z,8.19
2019-02-20T09:29:14.643Z,8.18
2019-02-20T09:30:15.174Z,8.18
2019-02-20T09:31:14.886Z,8.1
2019-02-20T09:32:14.890Z,8.23
2019-02-20T09:33:15.109Z,8.23
2019-02-20T09:34:14.894Z,8.28
2019-02-20T09:35:15.190Z,8.2
2019-02-20T09:36:14.865Z,8.18
2019-02-20T09:37:14.602Z,8.3
2019-02-20T09:38:14.907Z,8.26
2019-02-20T09:39:15.097Z,8.41
2019-02-20T09:40:15.130Z,8.37
2019-02-20T09:41:15.070Z,8.38
2019-02-20T09:42:14.810Z,8.49
2019-02-20T09:43:14.834Z,8.55
2019-02-20T09:44:15.049Z,8.56
2019-02-20T09:45:14.853Z,8.73
2019-02-20T09:46:15.054Z,8.76
2019-02-20T09:47:15.030Z,8.82
2019-02-20T09:48:15.026Z,8.91
2019-02-20T09:49:14.760Z,9
2019-02-20T09:50:14.799Z,9.1
2019-02-20T09:51:14.805Z,9.16
2019-02-20T09:52:14.995Z,9.22
2019-02-20T09:53:14.736Z,9.19
2019-02-20T09:54:14.726Z,9.36
2019-02-20T09:55:14.740Z,9.41
2019-02-20T09:56:16.150Z,9.41
2019-02-20T09:57:14.471Z,9.55
2019-02-20T09:58:14.749Z,9.51
2019-02-20T09:59:14.706Z,9.56
2019-02-20T10:00:15.053Z,9.54
2019-02-20T10:01:15.031Z,9.54
2019-02-20T10:02:14.489Z,9.66
2019-02-20T10:03:14.972Z,9.73
2019-02-20T10:04:14.930Z,9.72
2019-02-20T10:05:14.675Z,9.72
2019-02-20T10:06:15.519Z,9.62
2019-02-20T10:07:14.921Z,9.58
2019-02-20T10:08:14.658Z,9.55
2019-02-20T10:09:16.253Z,9.58
2019-02-20T10:10:14.966Z,9.55
2019-02-20T10:11:14.903Z,9.62
2019-02-20T10:12:14.915Z,9.62
2019-02-20T10:13:16.121Z,9.72
2019-02-20T10:14:14.638Z,9.76
2019-02-20T10:15:14.779Z,9.86
2019-02-20T10:16:14.654Z,9.86
2019-02-20T10:17:14.868Z,9.92
2019-02-20T10:18:16.899Z,9.94
2019-02-20T10:19:14.349Z,9.97
2019-02-20T10:20:14.879Z,9.99
2019-02-20T10:21:14.854Z,10.15
2019-02-20T10:22:14.828Z,10.16
2019-02-20T10:23:14.836Z,10.19
2019-02-20T10:24:14.581Z,10.33
2019-02-20T10:25:14.674Z,10.3
2019-02-20T10:26:14.840Z,10.34
2019-02-20T10:27:14.582Z,10.38
2019-02-20T10:28:14.586Z,10.42
2019-02-20T10:29:14.555Z,10.42
2019-02-20T10:30:14.639Z,10.44
2019-02-20T10:31:14.555Z,10.38
2019-02-20T10:32:14.827Z,10.42
2019-02-20T10:33:14.558Z,10.41
2019-02-20T10:34:15.810Z,10.48
2019-02-20T10:35:14.838Z,10.53
2019-02-20T10:36:14.280Z,10.6
2019-02-20T10:37:14.536Z,10.57
2019-02-20T10:38:14.521Z,10.57
2019-02-20T10:39:14.786Z,10.59
2019-02-20T10:40:14.759Z,10.75
2019-02-20T10:41:14.761Z,10.68
2019-02-20T10:42:14.492Z,10.78
2019-02-20T10:43:14.500Z,10.72
2019-02-20T10:44:14.747Z,10.79
2019-02-20T10:45:14.767Z,10.78
2019-02-20T10:46:14.744Z,10.84
2019-02-20T10:47:14.478Z,10.82
2019-02-20T10:48:14.733Z,10.94
2019-02-20T10:49:14.714Z,10.79
2019-02-20T10:50:14.744Z,10.87
2019-02-20T10:51:14.709Z,10.86
2019-02-20T10:52:14.710Z,10.79
2019-02-20T10:53:14.695Z,10.92
2019-02-20T10:54:14.699Z,10.81
2019-02-20T10:55:14.444Z,10.87
2019-02-20T10:56:14.466Z,10.9
2019-02-20T10:57:14.443Z,10.96
2019-02-20T10:58:14.681Z,10.96
2019-02-20T10:59:14.679Z,11
2019-02-20T11:00:25.737Z,10.94
2019-02-20T11:01:14.421Z,10.96
2019-02-20T11:02:14.428Z,10.96
2019-02-20T11:03:14.658Z,11.1
2019-02-20T11:04:14.413Z,11.12
2019-02-20T11:05:14.687Z,11.17
2019-02-20T11:06:14.652Z,11.27
2019-02-20T11:07:14.668Z,11.33
2019-02-20T11:08:14.385Z,11.33
2019-02-20T11:09:14.389Z,11.4
2019-02-20T11:10:14.386Z,11.43
2019-02-20T11:11:14.685Z,11.54
2019-02-20T11:12:14.391Z,11.63
2019-02-20T11:13:14.136Z,11.65
2019-02-20T11:14:14.623Z,11.72
2019-02-20T11:15:15.448Z,11.72
2019-02-20T11:16:14.601Z,11.86
2019-02-20T11:17:14.353Z,11.9
2019-02-20T11:18:14.626Z,11.95
2019-02-20T11:19:15.628Z,12.09
2019-02-20T11:20:16.274Z,12.13
2019-02-20T11:21:14.366Z,12.07
2019-02-20T11:22:14.583Z,12.1
2019-02-20T11:23:14.361Z,12.22
2019-02-20T11:24:14.081Z,12.2
2019-02-20T11:25:14.590Z,12.36
2019-02-20T11:26:22.147Z,12.36
2019-02-20T11:27:14.334Z,12.21
2019-02-20T11:28:14.350Z,12.49
2019-02-20T11:29:14.327Z,12.47
2019-02-20T11:30:14.559Z,12.45
2019-02-20T11:31:14.303Z,12.46
2019-02-20T11:32:14.562Z,12.43
2019-02-20T11:33:14.557Z,12.43
2019-02-20T11:34:14.065Z,12.42
2019-02-20T11:35:14.552Z,12.49
2019-02-20T11:36:14.549Z,12.49
2019-02-20T11:37:14.546Z,12.57
2019-02-20T11:38:14.254Z,12.67
2019-02-20T11:39:16.236Z,12.61
2019-02-20T11:40:14.300Z,12.72
2019-02-20T11:41:15.943Z,12.78
2019-02-20T11:42:14.533Z,12.79
2019-02-20T11:43:14.532Z,12.87
2019-02-20T11:44:23.451Z,12.9
2019-02-20T11:45:14.517Z,12.85
2019-02-20T11:46:14.502Z,12.82
2019-02-20T11:47:14.263Z,12.8
2019-02-20T11:48:14.241Z,12.75
2019-02-20T11:49:14.236Z,12.76
2019-02-20T11:50:14.525Z,12.7
2019-02-20T11:51:14.503Z,12.68
2019-02-20T11:52:14.273Z,12.46
2019-02-20T11:53:14.261Z,12.28
2019-02-20T11:54:14.499Z,12.31
2019-02-20T11:55:14.317Z,12.29
2019-02-20T11:56:14.770Z,12.21
2019-02-20T11:57:16.252Z,12.21
2019-02-20T11:58:14.494Z,12.18
2019-02-20T11:59:13.985Z,12.21
2019-02-20T12:00:14.489Z,12.15
2019-02-20T12:01:14.474Z,12.22
2019-02-20T12:02:14.475Z,12.28
2019-02-20T12:03:14.518Z,12.17
2019-02-20T12:04:14.219Z,12.21
2019-02-20T12:05:14.231Z,12.27
2019-02-20T12:06:14.464Z,12.35
2019-02-20T12:07:14.203Z,12.36
2019-02-20T12:08:14.451Z,12.36
2019-02-20T12:09:14.457Z,12.37
2019-02-20T12:10:15.224Z,12.37
2019-02-20T12:11:14.452Z,12.4
2019-02-20T12:12:14.189Z,12.46
2019-02-20T12:13:14.455Z,12.47
2019-02-20T12:14:14.192Z,12.57
2019-02-20T12:15:14.473Z,12.53
2019-02-20T12:16:14.182Z,12.5
2019-02-20T12:17:14.430Z,12.49
2019-02-20T12:18:21.904Z,12.45
2019-02-20T12:19:14.438Z,12.49
2019-02-20T12:20:14.206Z,12.5
2019-02-20T12:21:14.165Z,12.53
2019-02-20T12:22:13.929Z,12.49
2019-02-20T12:23:14.162Z,12.47
2019-02-20T12:24:14.431Z,12.42
2019-02-20T12:25:14.405Z,12.46
2019-02-20T12:26:14.421Z,12.54
2019-02-20T12:27:14.403Z,12.49
2019-02-20T12:28:14.159Z,12.47
2019-02-20T12:29:15.760Z,12.49
2019-02-20T12:30:13.999Z,12.54
2019-02-20T12:31:14.163Z,12.64
2019-02-20T12:32:13.890Z,12.62
2019-02-20T12:33:14.389Z,12.6
2019-02-20T12:34:13.890Z,12.55
2019-02-20T12:35:14.421Z,12.58
2019-02-20T12:36:14.196Z,12.58
2019-02-20T12:37:14.130Z,12.58
2019-02-20T12:38:14.116Z,12.64
2019-02-20T12:39:14.133Z,12.68
2019-02-20T12:40:14.117Z,12.6
2019-02-20T12:41:15.495Z,12.62
2019-02-20T12:42:15.469Z,12.53
2019-02-20T12:43:14.367Z,12.55
2019-02-20T12:44:13.859Z,12.49
2019-02-20T12:45:14.358Z,12.53
2019-02-20T12:46:14.097Z,12.57
2019-02-20T12:47:14.093Z,12.55
2019-02-20T12:48:14.347Z,12.67
2019-02-20T12:49:14.337Z,12.6
2019-02-20T12:50:14.336Z,12.61
2019-02-20T12:51:14.096Z,12.6
2019-02-20T12:52:14.070Z,12.55
2019-02-20T12:53:14.093Z,12.49
2019-02-20T12:54:14.068Z,12.47
2019-02-20T12:55:13.823Z,12.4
2019-02-20T12:56:15.059Z,12.47
2019-02-20T12:57:15.188Z,12.47
2019-02-20T12:58:14.063Z,12.42
2019-02-20T12:59:14.066Z,12.42
2019-02-20T13:00:14.303Z,12.42
2019-02-20T13:01:13.807Z,12.37
2019-02-20T13:02:14.315Z,12.39
2019-02-20T13:03:14.301Z,12.25
2019-02-20T13:04:14.265Z,12.28
2019-02-20T13:05:14.326Z,12.37
2019-02-20T13:06:14.044Z,12.36
2019-02-20T13:07:14.291Z,12.49
2019-02-20T13:08:14.337Z,12.5
2019-02-20T13:09:14.030Z,12.57
2019-02-20T13:10:14.280Z,12.65
2019-02-20T13:11:14.597Z,12.73
2019-02-20T13:12:14.285Z,12.79
2019-02-20T13:13:14.280Z,12.76
2019-02-20T13:14:14.275Z,12.78
2019-02-20T13:15:14.320Z,12.82
2019-02-20T13:16:14.168Z,12.82
2019-02-20T13:17:14.250Z,12.8